Time;durP1;ratioP1;P1;durP2;ratioP2;P2;SDS_P1;SDS_P2;PMS_P1;PMS_P2;Temp;Humidity;BMP_temperature;BMP_pressure;BME280_temperature;BME280_humidity;BME280_pressure;Samples;Min_cycle;Max_cycle;Signal;HPM_P1;HPM_P2
2023/01/11 00:02:16;;;;;;;16.17;4.57;;;12.00;99.90;;;;;;6299567;22;47943;-82
2023/01/11 00:04:43;;;;;;;13.83;4.67;;;12.00;99.90;;;;;;6318670;22;48342;-80
2023/01/11 00:10:32;;;;;;;11.20;4.05;;;12.00;99.90;;;;;;6306197;22;20007;-80
2023/01/11 00:13:02;;;;;;;13.70;4.57;;;12.10;99.90;;;;;;6341194;22;49488;-81
2023/01/11 00:15:37;;;;;;;12.55;4.72;;;12.10;99.90;;;;;;6331644;22;50221;-81
2023/01/11 00:18:10;;;;;;;11.07;4.85;;;12.00;99.90;;;;;;6314057;22;37711;-80
2023/01/11 00:21:07;;;;;;;13.73;5.43;;;12.00;99.90;;;;;;6341287;22;37258;-80
2023/01/11 00:23:37;;;;;;;10.15;5.25;;;12.00;99.90;;;;;;6327957;22;48154;-81
2023/01/11 00:34:36;;;;;;;10.82;5.20;;;12.00;99.90;;;;;;6327636;22;20204;-82
2023/01/11 00:37:27;;;;;;;17.20;5.95;;;12.00;99.90;;;;;;6336388;22;49671;-80
2023/01/11 00:49:01;;;;;;;17.40;6.95;;;11.90;99.90;;;;;;6341906;22;40203;-83
2023/01/11 00:51:28;;;;;;;14.95;6.65;;;11.90;99.90;;;;;;6313670;22;47183;-82
2023/01/11 00:54:02;;;;;;;18.20;7.22;;;11.90;99.90;;;;;;6340753;22;37502;-83
2023/01/11 00:56:28;;;;;;;15.93;6.88;;;11.90;99.90;;;;;;6312695;22;48194;-81
2023/01/11 01:10:54;;;;;;;15.73;6.18;;;11.90;99.90;;;;;;6293513;22;20014;-82
2023/01/11 01:18:56;;;;;;;12.43;5.80;;;11.90;99.90;;;;;;6339946;22;20063;-81
2023/01/11 01:22:00;;;;;;;12.00;6.68;;;12.00;99.90;;;;;;6341519;22;40010;-80
2023/01/11 01:24:27;;;;;;;14.23;5.45;;;12.00;99.90;;;;;;6313228;22;37987;-81
2023/01/11 01:27:04;;;;;;;14.82;6.28;;;12.00;99.90;;;;;;6341783;22;37764;-81
2023/01/11 01:35:41;;;;;;;15.30;6.93;;;11.90;99.90;;;;;;6315627;22;20003;-82
2023/01/11 01:38:09;;;;;;;11.18;5.90;;;11.90;99.90;;;;;;6303222;22;37878;-82
2023/01/11 01:40:49;;;;;;;10.98;6.40;;;11.90;99.90;;;;;;6314303;22;38989;-83
2023/01/11 01:43:54;;;;;;;12.13;6.88;;;12.00;99.90;;;;;;6313067;22;38282;-82
2023/01/11 01:49:44;;;;;;;13.32;8.07;;;11.90;99.90;;;;;;6342113;22;51007;-83
2023/01/11 01:52:11;;;;;;;15.23;7.18;;;12.00;99.90;;;;;;6315911;22;38486;-82
2023/01/11 01:54:43;;;;;;;9.50;7.45;;;12.00;99.90;;;;;;6316042;22;38457;-81
2023/01/11 01:57:33;;;;;;;16.40;7.68;;;12.00;99.90;;;;;;6315273;22;37483;-81
2023/01/11 02:00:05;;;;;;;11.05;7.95;;;12.00;99.90;;;;;;6316594;22;37801;-82
2023/01/11 02:05:08;;;;;;;9.65;7.55;;;12.00;99.90;;;;;;6292317;22;20010;-80
2023/01/11 02:10:17;;;;;;;10.80;6.72;;;12.10;99.90;;;;;;6284330;22;20007;-80
2023/01/11 02:23:46;;;;;;;7.55;6.00;;;12.10;99.90;;;;;;6274526;22;20076;-82
2023/01/11 02:29:10;;;;;;;6.50;5.47;;;12.10;99.90;;;;;;6288998;22;20026;-83
2023/01/11 02:32:08;;;;;;;8.30;5.85;;;12.10;99.90;;;;;;6311704;22;47901;-82
2023/01/11 02:34:40;;;;;;;7.57;6.03;;;12.20;99.90;;;;;;6314012;22;48351;-81
2023/01/11 02:37:30;;;;;;;;;;;12.20;99.90;;;;;;6299582;22;38330;-80
2023/01/11 02:40:14;;;;;;;6.78;5.65;;;12.20;99.90;;;;;;6321432;22;39008;-82
2023/01/11 02:45:27;;;;;;;11.63;6.38;;;12.20;99.90;;;;;;6269499;22;20002;-82
2023/01/11 02:48:35;;;;;;;7.05;5.47;;;12.20;99.90;;;;;;6314945;22;38594;-80
2023/01/11 02:51:07;;;;;;;6.97;5.63;;;12.20;99.90;;;;;;6311596;22;48529;-82
2023/01/11 02:53:47;;;;;;;9.77;5.20;;;12.20;99.90;;;;;;6313194;22;48383;-82
2023/01/11 02:56:37;;;;;;;6.40;4.63;;;12.20;99.90;;;;;;6298920;22;38598;-81
2023/01/11 02:59:32;;;;;;;7.80;5.20;;;12.20;99.90;;;;;;6294944;22;38476;-82
2023/01/11 03:05:15;;;;;;;8.13;4.95;;;12.20;99.90;;;;;;6318408;22;20000;-82
2023/01/11 03:07:54;;;;;;;7.40;5.00;;;12.20;99.90;;;;;;6326866;22;50147;-82
2023/01/11 03:10:35;;;;;;;8.15;5.55;;;12.30;99.90;;;;;;6289368;22;38356;-80
2023/01/11 03:13:20;;;;;;;10.95;6.57;;;12.30;99.90;;;;;;6314929;22;39538;-81
2023/01/11 03:16:23;;;;;;;18.38;5.90;;;12.20;99.90;;;;;;6312957;22;48401;-82
2023/01/11 03:21:47;;;;;;;12.77;5.95;;;12.30;99.90;;;;;;6309196;22;20030;-81
2023/01/11 03:24:59;;;;;;;10.68;5.28;;;12.30;99.90;;;;;;6313166;22;37908;-82
2023/01/11 03:27:49;;;;;;;10.57;4.80;;;12.30;99.90;;;;;;6340537;22;37761;-81
2023/01/11 03:36:12;;;;;;;15.50;3.97;;;12.20;99.90;;;;;;6301789;22;20014;-81
2023/01/11 03:39:01;;;;;;;14.45;3.55;;;12.20;99.90;;;;;;6338366;22;47949;-82
2023/01/11 03:41:43;;;;;;;19.45;3.55;;;12.20;99.90;;;;;;6312487;22;38187;-81
2023/01/11 03:44:13;;;;;;;21.67;3.28;;;12.20;99.90;;;;;;6313673;22;38184;-81
2023/01/11 03:46:50;;;;;;;14.07;3.20;;;12.20;99.90;;;;;;6314221;22;37615;-82
2023/01/11 03:52:11;;;;;;;20.98;3.47;;;12.20;99.90;;;;;;6336787;22;20060;-81
2023/01/11 03:54:38;;;;;;;22.70;3.20;;;12.20;99.90;;;;;;6313028;22;48962;-82
2023/01/11 04:00:08;;;;;;;24.75;3.95;;;12.20;99.90;;;;;;6333697;22;20055;-82
2023/01/11 04:08:02;;;;;;;32.25;4.78;;;12.20;99.90;;;;;;6327092;22;20009;-83
2023/01/11 04:10:30;;;;;;;32.33;4.82;;;12.20;99.90;;;;;;6311914;22;48598;-83
2023/01/11 04:20:47;;;;;;;33.70;4.82;;;12.10;99.90;;;;;;6323999;22;20059;-81
2023/01/11 04:23:14;;;;;;;35.50;4.63;;;12.00;99.90;;;;;;6314172;22;39132;-80
2023/01/11 04:25:42;;;;;;;38.28;5.40;;;12.00;99.90;;;;;;6268127;22;38633;-83
2023/01/11 04:28:08;;;;;;;37.23;5.80;;;12.00;99.90;;;;;;6305045;22;37653;-81
2023/01/11 04:30:35;;;;;;;32.78;3.97;;;11.90;99.90;;;;;;6266471;22;38876;-79
2023/01/11 04:33:01;;;;;;;27.03;5.17;;;11.90;99.90;;;;;;6285947;22;38424;-82
2023/01/11 04:35:38;;;;;;;31.17;4.37;;;11.80;99.90;;;;;;6313852;22;36917;-81
2023/01/11 04:38:23;;;;;;;34.53;4.77;;;11.80;99.90;;;;;;6307682;22;37820;-80
2023/01/11 04:44:37;;;;;;;29.17;4.47;;;11.60;99.90;;;;;;6347836;22;50669;-82
2023/01/11 04:49:39;;;;;;;24.93;5.07;;;11.60;99.90;;;;;;6268450;22;20145;-81
2023/01/11 04:52:10;;;;;;;21.53;4.23;;;11.50;99.90;;;;;;6312827;22;38645;-81
2023/01/11 04:54:36;;;;;;;26.83;3.97;;;11.60;99.90;;;;;;6297256;22;38814;-82
2023/01/11 05:04:49;;;;;;;31.43;4.63;;;11.50;99.90;;;;;;6326478;22;20016;-82
2023/01/11 05:07:17;;;;;;;31.30;4.35;;;11.50;99.90;;;;;;6311976;22;38199;-81
2023/01/11 05:09:47;;;;;;;26.43;3.37;;;11.40;99.90;;;;;;6313237;22;37537;-81
2023/01/11 05:15:27;;;;;;;26.37;3.93;;;11.30;99.90;;;;;;6236712;22;20033;31
2023/01/11 05:24:02;;;;;;;19.05;3.38;;;11.20;99.90;;;;;;6207577;22;20011;-81
2023/01/11 05:34:21;;;;;;;21.20;3.47;;;11.10;99.90;;;;;;6262987;22;20008;-80
2023/01/11 05:47:11;;;;;;;24.70;2.90;;;11.10;99.90;;;;;;6289848;22;20008;-82
2023/01/11 05:49:52;;;;;;;25.97;2.87;;;11.00;99.90;;;;;;6311741;22;38896;-79
2023/01/11 05:52:18;;;;;;;17.53;2.67;;;10.90;99.90;;;;;;6257692;22;39196;-81
2023/01/11 05:54:48;;;;;;;22.23;3.13;;;10.90;99.90;;;;;;6312954;22;37222;-81
2023/01/11 06:19:38;;;;;;;25.20;4.10;;;10.90;99.90;;;;;;6288134;22;20020;-81
2023/01/11 06:22:08;;;;;;;26.60;4.73;;;10.90;99.90;;;;;;6312870;22;38551;-80
2023/01/11 06:35:04;;;;;;;28.43;4.10;;;10.70;99.90;;;;;;6339675;22;20067;-81
2023/01/11 06:37:31;;;;;;;31.60;3.90;;;10.70;99.90;;;;;;6300609;22;47318;-81
2023/01/11 06:40:01;;;;;;;25.67;3.80;;;10.70;99.90;;;;;;6328049;22;40436;-81
2023/01/11 06:42:27;;;;;;;27.17;4.23;;;10.70;99.90;;;;;;6337258;22;38930;-79
2023/01/11 06:44:54;;;;;;;20.20;3.90;;;10.60;99.90;;;;;;6326213;22;38198;-81
2023/01/11 09:35:45;;;;;;;33.90;4.50;;;9.70;99.90;;;;;;6314531;22;20011;-82
2023/01/11 09:41:36;;;;;;;35.55;3.95;;;9.70;99.90;;;;;;6339551;22;19955;-84
2023/01/11 09:44:31;;;;;;;23.57;3.60;;;9.70;99.90;;;;;;6311783;22;38822;-80
2023/01/11 10:08:38;;;;;;;27.20;4.13;;;10.20;99.90;;;;;;6286179;22;20008;-81
2023/01/11 10:24:16;;;;;;;24.97;3.97;;;10.30;99.90;;;;;;6286124;22;20165;-80
2023/01/11 10:53:33;;;;;;;25.00;3.73;;;10.70;99.90;;;;;;6236708;22;20007;-83
2023/01/11 15:33:19;;;;;;;35.57;6.53;;;10.40;99.90;;;;;;6288189;22;20137;-79
2023/01/11 15:58:21;;;;;;;21.92;3.75;;;10.30;99.90;;;;;;6284579;22;20023;-80
2023/01/11 16:22:04;;;;;;;21.67;4.37;;;10.70;99.90;;;;;;6231486;22;20025;-79
2023/01/11 17:12:35;;;;;;;16.47;3.10;;;10.40;99.90;;;;;;6242859;22;20020;31
2023/01/11 17:20:19;;;;;;;21.70;4.77;;;10.40;99.90;;;;;;6220920;22;20007;-82
2023/01/11 17:31:57;;;;;;;15.23;3.28;;;10.40;99.90;;;;;;6254963;22;20030;-79
2023/01/11 17:34:46;;;;;;;16.67;3.30;;;10.40;99.90;;;;;;6302788;22;39093;-81
2023/01/11 17:48:14;;;;;;;23.67;3.10;;;9.90;99.90;;;;;;6332808;22;20018;-80
2023/01/11 17:51:06;;;;;;;21.90;4.40;;;9.90;99.90;;;;;;6345826;22;37423;-81
2023/01/11 18:01:25;;;;;;;21.33;4.73;;;10.00;99.90;;;;;;6207151;22;20027;-80
2023/01/11 18:03:55;;;;;;;29.33;4.60;;;10.00;99.90;;;;;;6289192;22;39202;-80
2023/01/11 18:14:24;;;;;;;25.93;4.90;;;10.10;99.90;;;;;;6257241;22;20228;-76
2023/01/11 18:17:02;;;;;;;27.17;4.10;;;10.10;99.90;;;;;;6283358;22;37213;-77
2023/01/11 18:19:38;;;;;;;24.97;4.10;;;10.10;99.90;;;;;;6288857;22;46949;-77
2023/01/11 18:22:27;;;;;;;23.40;3.67;;;10.10;99.90;;;;;;6316878;22;38348;-79
2023/01/11 18:24:54;;;;;;;21.23;3.43;;;10.00;99.90;;;;;;6301023;22;37846;-77
2023/01/11 18:27:31;;;;;;;28.53;3.83;;;10.10;99.90;;;;;;6283637;22;37486;-77
2023/01/11 18:30:01;;;;;;;24.77;4.30;;;10.00;99.90;;;;;;6282203;22;39710;-77
2023/01/11 18:32:34;;;;;;;26.87;4.37;;;9.90;99.90;;;;;;6279220;22;36253;-77
2023/01/11 18:35:00;;;;;;;20.03;3.13;;;9.80;99.90;;;;;;6280526;22;37657;-77
2023/01/11 18:37:26;;;;;;;25.30;3.43;;;9.80;99.90;;;;;;6308157;22;39682;-76
2023/01/11 18:39:52;;;;;;;24.20;4.23;;;9.70;99.90;;;;;;6311267;22;38267;-78
2023/01/11 18:42:24;;;;;;;24.17;3.80;;;9.70;99.90;;;;;;6282550;22;35955;-76
2023/01/11 18:44:50;;;;;;;27.57;4.37;;;9.60;99.90;;;;;;6280021;22;38184;-76
2023/01/11 18:47:25;;;;;;;24.87;3.83;;;9.50;99.90;;;;;;6282227;22;36951;-76
2023/01/11 18:49:53;;;;;;;26.50;4.17;;;9.50;99.90;;;;;;6309334;22;37775;-76
2023/01/11 18:52:21;;;;;;;26.30;3.77;;;9.60;99.90;;;;;;6275328;22;36994;-77
2023/01/11 18:54:47;;;;;;;17.63;3.47;;;9.60;99.90;;;;;;6275395;22;38301;-76
2023/01/11 18:57:13;;;;;;;35.10;4.87;;;9.50;99.90;;;;;;6274225;22;37523;-75
2023/01/11 18:59:39;;;;;;;26.57;4.87;;;9.60;99.90;;;;;;6275203;22;37041;-75
2023/01/11 19:02:27;;;;;;;29.20;5.10;;;9.60;99.90;;;;;;6272529;22;36218;-76
2023/01/11 19:04:55;;;;;;;29.97;4.07;;;9.50;99.90;;;;;;6274828;22;37959;-75
2023/01/11 19:07:23;;;;;;;33.00;5.10;;;9.50;99.90;;;;;;6273005;22;40034;-74
2023/01/11 19:09:54;;;;;;;29.73;4.90;;;9.50;99.90;;;;;;6301112;22;38546;-75
2023/01/11 19:12:22;;;;;;;28.10;4.22;;;9.50;99.90;;;;;;6213329;22;37908;-74
2023/01/11 19:14:48;;;;;;;30.37;4.03;;;9.40;99.90;;;;;;6293625;22;38592;-76
2023/01/11 19:17:14;;;;;;;35.70;4.93;;;9.40;99.90;;;;;;6271671;22;37206;-74
2023/01/11 19:19:40;;;;;;;41.67;4.63;;;9.40;99.90;;;;;;6273380;22;36970;-75
2023/01/11 19:22:07;;;;;;;26.67;3.83;;;9.40;99.90;;;;;;6269540;22;36325;-76
2023/01/11 19:24:33;;;;;;;36.67;4.73;;;9.40;99.90;;;;;;6269771;22;39053;-77
2023/01/11 19:26:59;;;;;;;32.47;5.03;;;9.40;99.90;;;;;;6267108;22;37699;-75
2023/01/11 19:29:29;;;;;;;33.90;5.10;;;9.40;99.90;;;;;;6270922;22;36451;-76
2023/01/11 19:31:56;;;;;;;35.30;5.13;;;9.30;99.90;;;;;;6301933;22;36915;-81
2023/01/11 19:34:23;;;;;;;28.90;4.83;;;9.30;99.90;;;;;;6277336;22;37285;-80
2023/01/11 19:36:52;;;;;;;34.43;5.63;;;9.40;99.90;;;;;;6277476;22;37274;-81
2023/01/11 19:39:21;;;;;;;34.53;5.80;;;9.40;99.90;;;;;;6276666;22;38309;-82
2023/01/11 19:41:53;;;;;;;38.83;5.93;;;9.30;99.90;;;;;;6300516;22;36980;-80
2023/01/11 19:44:23;;;;;;;31.55;4.72;;;9.40;99.90;;;;;;6277645;22;37769;-80
2023/01/11 19:46:50;;;;;;;29.73;3.73;;;9.40;99.90;;;;;;6278928;22;37133;-80
2023/01/11 19:49:19;;;;;;;24.87;3.97;;;9.40;99.90;;;;;;6306057;22;38077;-79
2023/01/11 19:51:45;;;;;;;25.27;3.80;;;9.40;99.90;;;;;;6279574;22;36537;-78
2023/01/11 19:54:13;;;;;;;29.90;4.57;;;9.40;99.90;;;;;;6279465;22;37983;-82
2023/01/11 19:56:43;;;;;;;32.47;4.50;;;9.40;99.90;;;;;;6280502;22;38929;-80
2023/01/11 19:59:10;;;;;;;36.87;5.57;;;9.40;99.90;;;;;;6261598;22;36783;-79
2023/01/11 20:01:38;;;;;;;31.70;4.93;;;9.30;99.90;;;;;;6304506;22;35995;-80
2023/01/11 20:04:11;;;;;;;34.47;5.27;;;9.30;99.90;;;;;;6279395;22;38109;-81
2023/01/11 20:06:48;;;;;;;41.87;6.47;;;9.30;99.90;;;;;;6281087;22;37219;-79
2023/01/11 20:09:16;;;;;;;31.50;5.00;;;9.30;99.90;;;;;;6276073;22;38318;-79
2023/01/11 20:11:43;;;;;;;32.67;5.23;;;9.30;99.90;;;;;;6279415;22;36692;-80
2023/01/11 20:14:09;;;;;;;35.27;4.70;;;9.30;99.90;;;;;;6277660;22;38701;-79
2023/01/11 20:16:35;;;;;;;33.07;5.33;;;9.30;99.90;;;;;;6281845;22;37126;-79
2023/01/11 20:19:01;;;;;;;31.43;5.30;;;9.30;99.90;;;;;;6283400;22;38350;-80
2023/01/11 20:21:30;;;;;;;39.13;5.53;;;9.20;99.90;;;;;;6279341;22;36696;-81
2023/01/11 20:23:56;;;;;;;29.70;5.27;;;9.20;99.90;;;;;;6279796;22;37915;-81
2023/01/11 20:26:24;;;;;;;36.43;6.50;;;9.20;99.90;;;;;;6277528;22;37004;-79
2023/01/11 20:28:55;;;;;;;32.10;6.00;;;9.10;99.90;;;;;;6303161;22;38946;-85
2023/01/11 20:31:26;;;;;;;25.43;6.00;;;9.20;99.90;;;;;;6277771;22;36379;-78
2023/01/11 20:33:54;;;;;;;35.77;6.50;;;9.20;99.90;;;;;;6275480;22;38224;-79
2023/01/11 20:36:21;;;;;;;36.87;6.20;;;9.20;99.90;;;;;;6273064;22;37257;-78
2023/01/11 20:38:47;;;;;;;34.37;5.90;;;9.20;99.90;;;;;;6275146;22;37210;-79
2023/01/11 20:44:05;;;;;;;31.70;5.33;;;9.30;99.90;;;;;;6304966;22;39318;-77
2023/01/11 20:46:32;;;;;;;34.97;5.43;;;9.30;99.90;;;;;;6303464;22;39527;-78
2023/01/11 20:48:59;;;;;;;34.30;5.83;;;9.30;99.90;;;;;;6264063;22;38339;-75
2023/01/11 20:51:25;;;;;;;36.67;5.77;;;9.30;99.90;;;;;;6270669;22;37330;-75
2023/01/11 20:53:51;;;;;;;33.17;5.47;;;9.40;99.90;;;;;;6267084;22;38419;-77
2023/01/11 20:56:17;;;;;;;33.60;5.80;;;9.40;99.90;;;;;;6269254;22;37236;-76
2023/01/11 20:58:49;;;;;;;44.67;5.57;;;9.40;99.90;;;;;;6270287;22;36935;-77
2023/01/11 21:01:26;;;;;;;31.88;4.75;;;9.40;99.90;;;;;;6296012;22;37546;-78
2023/01/11 21:04:00;;;;;;;44.83;6.40;;;9.40;99.90;;;;;;6299428;22;39374;-77
2023/01/11 21:06:27;;;;;;;37.30;5.20;;;9.30;99.90;;;;;;6271459;22;38603;-76
2023/01/11 21:08:58;;;;;;;30.77;5.40;;;9.30;99.90;;;;;;6274277;22;38070;-77
2023/01/11 21:11:24;;;;;;;44.20;5.17;;;9.30;99.90;;;;;;6300626;22;38210;-79
2023/01/11 21:13:52;;;;;;;30.03;4.60;;;9.40;99.90;;;;;;6271449;22;38908;-77
2023/01/11 21:16:18;;;;;;;28.23;4.37;;;9.40;99.90;;;;;;6267387;22;37421;-78
2023/01/11 21:18:45;;;;;;;32.33;4.47;;;9.40;99.90;;;;;;6271569;22;37290;-79
2023/01/11 21:21:16;;;;;;;41.73;7.27;;;9.40;99.90;;;;;;6297166;22;37332;-76
2023/01/11 21:23:43;;;;;;;29.60;3.73;;;9.40;99.90;;;;;;6299533;22;39810;-77
2023/01/11 21:26:17;;;;;;;35.37;4.60;;;9.40;99.90;;;;;;6273553;22;37211;-77
2023/01/11 21:28:44;;;;;;;19.83;3.97;;;9.50;99.90;;;;;;6275129;22;37200;-76
2023/01/11 21:31:11;;;;;;;27.57;4.23;;;9.50;99.90;;;;;;6270642;22;37563;-78
2023/01/11 21:33:37;;;;;;;20.53;3.43;;;9.50;99.90;;;;;;6271599;22;38626;-76
2023/01/11 21:36:07;;;;;;;23.07;4.27;;;9.50;99.90;;;;;;6270645;22;37672;-78
2023/01/11 21:38:34;;;;;;;18.60;3.70;;;9.50;99.90;;;;;;6302698;22;37744;-79
2023/01/11 21:41:07;;;;;;;29.67;4.73;;;9.50;99.90;;;;;;6298560;22;37148;-78
2023/01/11 21:43:33;;;;;;;29.30;3.87;;;9.60;99.90;;;;;;6273011;22;48558;-76
2023/01/11 21:46:00;;;;;;;21.07;3.40;;;9.60;99.90;;;;;;6302399;22;38218;-77
2023/01/11 21:48:26;;;;;;;24.17;3.67;;;9.70;99.90;;;;;;6275621;22;38477;-77
2023/01/11 21:50:52;;;;;;;22.00;3.57;;;9.70;99.90;;;;;;6273315;22;36236;-75
2023/01/11 21:53:19;;;;;;;20.97;3.70;;;9.70;99.90;;;;;;6296891;22;38772;-75
2023/01/11 21:55:46;;;;;;;21.70;3.73;;;9.70;99.90;;;;;;6270501;22;37223;-74
2023/01/11 21:58:12;;;;;;;25.57;3.73;;;9.80;99.90;;;;;;6272279;22;38590;-76
2023/01/11 22:00:38;;;;;;;23.37;3.10;;;9.70;99.90;;;;;;6273544;22;36478;-75
2023/01/11 22:03:04;;;;;;;22.83;3.47;;;9.80;99.90;;;;;;6270583;22;38035;-75
2023/01/11 22:05:31;;;;;;;18.87;3.03;;;9.70;99.90;;;;;;6279952;22;38726;-75
2023/01/11 22:07:57;;;;;;;22.00;3.23;;;9.80;99.90;;;;;;6300767;22;37989;-74
2023/01/11 22:10:23;;;;;;;22.83;4.00;;;9.80;99.90;;;;;;6266805;22;36061;-77
2023/01/11 22:12:49;;;;;;;18.87;3.80;;;9.90;99.90;;;;;;6302636;22;39533;-76
2023/01/11 22:15:15;;;;;;;18.83;3.50;;;9.90;99.90;;;;;;6265519;22;37368;-76
2023/01/11 22:17:42;;;;;;;19.80;4.07;;;9.80;99.90;;;;;;6274562;22;38454;-76
2023/01/11 22:20:09;;;;;;;16.63;3.23;;;9.80;99.90;;;;;;6274126;22;36686;-76
2023/01/11 22:22:35;;;;;;;20.60;2.70;;;9.70;99.90;;;;;;6278380;22;37350;-76
2023/01/11 22:25:01;;;;;;;16.73;2.70;;;9.70;99.90;;;;;;6275998;22;37376;-76
2023/01/11 22:27:27;;;;;;;14.67;3.07;;;9.70;99.90;;;;;;6273119;22;36876;-78
2023/01/11 22:29:53;;;;;;;17.33;3.00;;;9.70;99.90;;;;;;6301651;22;37712;-75
2023/01/11 22:32:20;;;;;;;20.57;3.50;;;9.70;99.90;;;;;;6274230;22;37728;-75
2023/01/11 22:34:46;;;;;;;21.00;3.60;;;9.70;99.90;;;;;;6275815;22;38781;-76
2023/01/11 22:37:12;;;;;;;26.73;4.30;;;9.70;99.90;;;;;;6304541;22;38778;-76
2023/01/11 22:39:39;;;;;;;20.53;3.90;;;9.70;99.90;;;;;;6302677;22;37212;-77
2023/01/11 22:42:06;;;;;;;22.77;3.83;;;9.70;99.90;;;;;;6301087;22;38960;-76
2023/01/11 22:44:32;;;;;;;20.03;3.20;;;9.70;99.90;;;;;;6306510;22;38353;-76
2023/01/11 22:46:59;;;;;;;22.33;4.13;;;9.70;99.90;;;;;;6303022;22;39431;-77
2023/01/11 22:49:25;;;;;;;21.60;4.10;;;9.70;99.90;;;;;;6302132;22;37388;-75
2023/01/11 22:51:51;;;;;;;30.20;4.50;;;9.70;99.90;;;;;;6276399;22;38082;-76
2023/01/11 22:54:18;;;;;;;31.17;4.80;;;9.80;99.90;;;;;;6272462;22;38200;-76
2023/01/11 22:56:44;;;;;;;27.83;4.40;;;9.90;99.90;;;;;;6278724;22;37167;-76
2023/01/11 22:59:10;;;;;;;28.73;4.50;;;9.90;99.90;;;;;;6276525;22;35886;-76
2023/01/11 23:01:38;;;;;;;21.07;3.23;;;10.00;99.90;;;;;;6277386;22;39205;-75
2023/01/11 23:04:07;;;;;;;36.07;4.17;;;10.10;99.90;;;;;;6277638;22;37145;-76
2023/01/11 23:06:36;;;;;;;23.43;5.30;;;10.10;99.90;;;;;;6278488;22;37288;-77
2023/01/11 23:09:04;;;;;;;20.90;4.87;;;10.10;99.90;;;;;;6275960;22;36656;-75
2023/01/11 23:14:20;;;;;;;25.77;4.43;;;10.10;99.90;;;;;;6302071;22;39695;-76
2023/01/11 23:16:48;;;;;;;28.47;4.90;;;10.10;99.90;;;;;;6303656;22;38207;-75
2023/01/11 23:19:18;;;;;;;33.17;4.30;;;10.10;99.90;;;;;;6275517;22;36412;-78
2023/01/11 23:21:45;;;;;;;38.83;4.17;;;10.10;99.90;;;;;;6304495;22;39517;-75
2023/01/11 23:24:13;;;;;;;35.30;4.83;;;10.10;99.90;;;;;;6274194;22;37720;-77
2023/01/11 23:26:40;;;;;;;30.93;4.70;;;10.10;99.90;;;;;;6305152;22;37642;-76
2023/01/11 23:29:06;;;;;;;30.77;4.20;;;10.10;99.90;;;;;;6304553;22;37179;-78
2023/01/11 23:31:33;;;;;;;21.57;4.50;;;10.00;99.90;;;;;;6275449;22;37566;-76
2023/01/11 23:34:01;;;;;;;34.03;4.63;;;10.00;99.90;;;;;;6276774;22;37280;-74
2023/01/11 23:36:32;;;;;;;31.67;4.77;;;10.00;99.90;;;;;;6272749;22;37095;-77
2023/01/11 23:38:59;;;;;;;28.70;4.77;;;10.00;99.90;;;;;;6274652;22;36256;-76
2023/01/11 23:44:13;;;;;;;29.73;5.83;;;9.90;99.90;;;;;;6302710;22;38718;-76
2023/01/11 23:49:26;;;;;;;34.50;5.60;;;10.00;99.90;;;;;;6304948;22;37648;-76
2023/01/11 23:51:53;;;;;;;43.37;5.43;;;10.00;99.90;;;;;;6304021;22;38693;-77
2023/01/11 23:54:20;;;;;;;42.03;6.73;;;10.00;99.90;;;;;;6302822;22;38081;-77
2023/01/11 23:56:46;;;;;;;47.87;7.43;;;9.90;99.90;;;;;;6267069;22;38514;-76
2023/01/11 23:59:12;;;;;;;46.33;6.83;;;10.00;99.90;;;;;;6297898;22;37915;-76
